createdAt,value
2018-03-31T00:02:08.419Z,3.10
2018-03-31T00:04:37.117Z,3.10
2018-03-31T00:07:06.123Z,3.10
2018-03-31T00:09:34.787Z,3.00
2018-03-31T00:12:03.586Z,3.00
2018-03-31T00:14:33.114Z,3.00
2018-03-31T00:17:02.892Z,3.00
2018-03-31T00:19:31.878Z,3.00
2018-03-31T00:22:01.182Z,3.10
2018-03-31T00:24:30.671Z,3.00
2018-03-31T00:26:59.672Z,3.00
2018-03-31T00:29:28.399Z,3.00
2018-03-31T00:31:57.176Z,2.90
2018-03-31T00:34:26.906Z,2.80
2018-03-31T00:36:55.704Z,2.80
2018-03-31T00:39:24.685Z,2.90
2018-03-31T00:41:53.449Z,2.90
2018-03-31T00:44:22.585Z,2.90
2018-03-31T00:46:51.334Z,2.80
2018-03-31T00:49:20.082Z,2.80
2018-03-31T00:51:48.854Z,2.80
2018-03-31T00:54:18.056Z,2.80
2018-03-31T00:56:46.866Z,2.90
2018-03-31T00:59:15.590Z,2.90
2018-03-31T01:01:44.338Z,2.80
2018-03-31T01:04:14.105Z,2.90
2018-03-31T01:06:42.859Z,2.80
2018-03-31T01:09:11.831Z,2.90
2018-03-31T01:11:41.678Z,2.80
2018-03-31T01:14:10.442Z,2.80
2018-03-31T01:16:39.145Z,2.80
2018-03-31T01:19:08.907Z,2.80
2018-03-31T01:21:37.728Z,2.80
2018-03-31T01:24:06.470Z,2.80
2018-03-31T01:26:36.387Z,2.80
2018-03-31T01:29:05.914Z,2.70
2018-03-31T01:31:35.541Z,2.50
2018-03-31T01:34:04.734Z,2.80
2018-03-31T01:36:33.881Z,2.80
2018-03-31T01:39:02.729Z,2.80
2018-03-31T01:41:31.442Z,2.80
2018-03-31T01:44:00.534Z,2.80
2018-03-31T01:46:29.316Z,2.80
2018-03-31T01:48:58.067Z,2.90
2018-03-31T01:51:26.794Z,3.00
2018-03-31T01:53:56.651Z,2.90
2018-03-31T01:56:25.444Z,2.90
2018-03-31T01:58:54.973Z,3.00
2018-03-31T02:01:23.735Z,3.00
2018-03-31T02:03:52.893Z,3.00
2018-03-31T02:06:22.442Z,3.00
2018-03-31T02:08:51.344Z,3.00
2018-03-31T02:11:20.502Z,3.10
2018-03-31T02:13:49.226Z,3.00
2018-03-31T02:16:17.969Z,3.00
2018-03-31T02:18:46.756Z,3.00
2018-03-31T02:21:15.523Z,3.10
2018-03-31T02:23:44.576Z,3.20
2018-03-31T02:26:13.479Z,3.10
2018-03-31T02:28:42.333Z,3.10
2018-03-31T02:31:11.944Z,3.10
2018-03-31T02:33:41.082Z,3.10
2018-03-31T02:36:09.889Z,3.20
2018-03-31T02:38:38.712Z,3.10
2018-03-31T02:41:07.703Z,3.00
2018-03-31T02:43:36.407Z,2.90
2018-03-31T02:46:05.932Z,3.10
2018-03-31T02:48:35.799Z,3.00
2018-03-31T02:51:04.492Z,3.10
2018-03-31T02:53:33.251Z,3.00
2018-03-31T02:56:02.172Z,3.00
2018-03-31T02:58:31.164Z,3.00
2018-03-31T03:00:59.891Z,2.90
2018-03-31T03:03:28.551Z,2.90
2018-03-31T03:05:57.229Z,2.90
2018-03-31T03:08:26.358Z,3.00
2018-03-31T03:10:55.861Z,2.90
2018-03-31T03:13:24.586Z,2.90
2018-03-31T03:15:53.858Z,2.80
2018-03-31T03:18:22.615Z,2.90
2018-03-31T03:20:51.091Z,2.80
2018-03-31T03:23:19.550Z,2.90
2018-03-31T03:25:48.030Z,2.90
2018-03-31T03:28:17.565Z,2.90
2018-03-31T03:30:46.332Z,3.10
2018-03-31T03:33:15.554Z,2.80
2018-03-31T03:35:44.008Z,2.80
2018-03-31T03:38:12.774Z,2.80
2018-03-31T03:40:42.170Z,2.80
2018-03-31T03:43:11.708Z,2.80
2018-03-31T03:45:40.443Z,2.80
2018-03-31T03:48:09.009Z,2.90
2018-03-31T03:50:37.588Z,3.00
2018-03-31T03:53:06.395Z,2.90
2018-03-31T03:55:35.650Z,3.00
2018-03-31T03:58:04.146Z,2.90
2018-03-31T04:00:32.626Z,3.00
2018-03-31T04:03:01.072Z,3.00
2018-03-31T04:05:30.634Z,2.90
2018-03-31T04:07:59.215Z,2.90
2018-03-31T04:10:27.787Z,2.90
2018-03-31T04:12:56.310Z,3.00
2018-03-31T04:15:25.178Z,3.00
2018-03-31T04:17:53.647Z,3.10
2018-03-31T04:20:22.115Z,3.00
2018-03-31T04:22:50.585Z,3.00
2018-03-31T04:25:19.680Z,2.90
2018-03-31T04:27:48.223Z,2.90
2018-03-31T04:30:17.464Z,2.90
2018-03-31T04:32:46.187Z,2.90
2018-03-31T04:35:14.685Z,3.00
2018-03-31T04:37:43.134Z,3.00
2018-03-31T04:40:12.261Z,3.00
2018-03-31T04:42:41.518Z,3.00
2018-03-31T04:45:10.770Z,3.00
2018-03-31T04:47:40.639Z,3.00
2018-03-31T04:50:09.154Z,3.00
2018-03-31T04:52:38.943Z,3.00
2018-03-31T04:55:07.668Z,3.00
2018-03-31T04:57:36.490Z,3.10
2018-03-31T05:00:05.193Z,3.00
2018-03-31T05:02:33.692Z,3.10
2018-03-31T05:05:02.302Z,3.10
2018-03-31T05:07:31.955Z,3.00
2018-03-31T05:10:00.515Z,3.00
2018-03-31T05:12:29.227Z,3.00
2018-03-31T05:14:57.958Z,3.00
2018-03-31T05:17:27.220Z,3.20
2018-03-31T05:19:55.671Z,3.10
2018-03-31T05:22:24.158Z,3.20
2018-03-31T05:24:53.991Z,3.30
2018-03-31T05:27:22.560Z,3.30
2018-03-31T05:29:51.156Z,3.20
2018-03-31T05:32:20.312Z,3.20
2018-03-31T05:34:49.330Z,3.30
2018-03-31T05:37:17.915Z,3.30
2018-03-31T05:39:46.409Z,3.30
2018-03-31T05:42:14.969Z,3.30
2018-03-31T05:44:44.447Z,3.30
2018-03-31T05:47:13.050Z,3.30
2018-03-31T05:49:41.589Z,3.30
2018-03-31T05:52:10.235Z,3.20
2018-03-31T05:54:39.206Z,3.30
2018-03-31T05:57:07.686Z,3.30
2018-03-31T05:59:36.128Z,3.30
2018-03-31T06:02:05.683Z,3.10
2018-03-31T06:04:34.498Z,3.10
2018-03-31T06:07:02.982Z,3.20
2018-03-31T06:09:31.442Z,3.30
2018-03-31T06:12:00.275Z,3.30
2018-03-31T06:14:28.753Z,3.30
2018-03-31T06:16:57.291Z,3.30
2018-03-31T06:19:25.784Z,3.40
2018-03-31T06:21:54.774Z,3.50
2018-03-31T06:24:23.533Z,3.40
2018-03-31T06:26:52.065Z,3.60
2018-03-31T06:29:20.992Z,3.70
2018-03-31T06:31:49.739Z,3.70
2018-03-31T06:34:18.983Z,3.60
2018-03-31T06:36:47.426Z,3.60
2018-03-31T06:39:15.866Z,3.60
2018-03-31T06:41:44.821Z,3.50
2018-03-31T06:44:13.285Z,3.60
2018-03-31T06:46:42.562Z,3.70
2018-03-31T06:49:11.343Z,3.70
2018-03-31T06:51:39.794Z,3.80
2018-03-31T06:54:08.259Z,3.90
2018-03-31T06:56:37.090Z,4.10
2018-03-31T06:59:06.142Z,4.10
2018-03-31T07:01:34.765Z,3.90
2018-03-31T07:04:04.542Z,4.00
2018-03-31T07:06:33.081Z,4.00
2018-03-31T07:09:01.531Z,3.80
2018-03-31T07:11:30.246Z,3.70
2018-03-31T07:13:58.758Z,3.80
2018-03-31T07:16:27.299Z,3.80
2018-03-31T07:18:56.028Z,3.90
2018-03-31T07:21:24.505Z,4.30
2018-03-31T07:23:53.031Z,4.20
2018-03-31T07:26:21.839Z,4.20
2018-03-31T07:28:51.351Z,4.10
2018-03-31T07:31:19.939Z,4.10
2018-03-31T07:33:49.150Z,4.30
2018-03-31T07:36:18.711Z,4.70
2018-03-31T07:38:47.162Z,4.60
2018-03-31T07:41:15.633Z,4.50
2018-03-31T07:43:44.399Z,4.50
2018-03-31T07:46:13.648Z,4.50
2018-03-31T07:48:42.154Z,4.50
2018-03-31T07:51:10.862Z,4.50
2018-03-31T07:53:39.348Z,4.60
2018-03-31T07:56:07.798Z,5.00
2018-03-31T07:58:36.644Z,4.90
2018-03-31T08:01:05.120Z,4.90
2018-03-31T08:03:33.717Z,5.10
2018-03-31T08:06:02.527Z,5.30
2018-03-31T08:08:31.243Z,5.40
2018-03-31T08:11:00.446Z,5.10
2018-03-31T08:13:29.948Z,5.10
2018-03-31T08:15:59.158Z,4.90
2018-03-31T08:18:27.606Z,4.90
2018-03-31T08:20:56.452Z,4.90
2018-03-31T08:23:24.906Z,5.00
2018-03-31T08:25:53.745Z,5.00
2018-03-31T08:28:22.450Z,5.40
2018-03-31T08:30:50.914Z,5.40
2018-03-31T08:33:20.120Z,5.20
2018-03-31T08:35:48.871Z,5.20
2018-03-31T08:38:17.331Z,5.30
2018-03-31T08:40:45.815Z,5.60
2018-03-31T08:43:14.620Z,5.90
2018-03-31T08:45:43.146Z,5.80
2018-03-31T08:48:11.579Z,6.00
2018-03-31T08:50:40.547Z,5.80
2018-03-31T08:53:09.053Z,5.90
2018-03-31T08:55:38.544Z,6.10
2018-03-31T08:58:07.295Z,6.00
2018-03-31T09:00:35.802Z,6.20
2018-03-31T09:03:04.263Z,6.40
2018-03-31T09:05:33.851Z,6.30
2018-03-31T09:08:02.353Z,6.30
2018-03-31T09:10:31.790Z,6.10
2018-03-31T09:13:00.487Z,6.40
2018-03-31T09:15:28.978Z,6.70
2018-03-31T09:17:57.463Z,6.80
2018-03-31T09:20:26.282Z,6.60
2018-03-31T09:22:54.974Z,6.50
2018-03-31T09:25:24.172Z,6.20
2018-03-31T09:27:53.714Z,6.00
2018-03-31T09:30:22.179Z,5.90
2018-03-31T09:32:50.899Z,6.10
2018-03-31T09:35:19.819Z,6.20
2018-03-31T09:37:48.291Z,6.10
2018-03-31T09:40:16.822Z,6.00
2018-03-31T09:42:46.348Z,5.90
2018-03-31T09:45:14.916Z,5.60
2018-03-31T09:47:43.453Z,5.20
2018-03-31T09:50:12.765Z,5.30
2018-03-31T09:52:41.995Z,5.40
2018-03-31T09:55:10.508Z,5.40
2018-03-31T09:57:39.496Z,5.20
2018-03-31T10:00:08.259Z,5.30
2018-03-31T10:02:36.706Z,5.30
2018-03-31T10:05:05.460Z,5.30
2018-03-31T10:07:34.762Z,5.20
2018-03-31T10:10:04.290Z,5.10
2018-03-31T10:12:34.117Z,5.10
2018-03-31T10:15:02.679Z,5.10
2018-03-31T10:17:31.200Z,5.10
2018-03-31T10:19:59.998Z,5.20
2018-03-31T10:22:28.494Z,5.20
2018-03-31T10:24:57.104Z,5.20
2018-03-31T10:27:26.239Z,5.10
2018-03-31T10:29:54.790Z,5.00
2018-03-31T10:32:24.116Z,4.80
2018-03-31T10:34:52.958Z,4.80
2018-03-31T10:37:21.870Z,5.00
2018-03-31T10:39:52.074Z,5.00
2018-03-31T10:42:20.806Z,5.00
2018-03-31T10:44:49.264Z,5.00
2018-03-31T10:47:18.516Z,5.30
2018-03-31T10:49:47.245Z,5.30
2018-03-31T10:52:16.574Z,5.50
2018-03-31T10:54:45.215Z,5.50
2018-03-31T10:57:14.866Z,5.30
2018-03-31T10:59:44.238Z,5.40
2018-03-31T11:02:13.457Z,5.60
2018-03-31T11:04:42.946Z,5.70
2018-03-31T11:07:12.213Z,5.70
2018-03-31T11:09:40.698Z,5.70
2018-03-31T11:12:09.707Z,5.50
2018-03-31T11:14:38.940Z,5.50
2018-03-31T11:17:07.434Z,5.50
2018-03-31T11:19:36.839Z,5.70
2018-03-31T11:22:06.129Z,5.70
2018-03-31T11:24:34.668Z,5.70
2018-03-31T11:27:03.419Z,5.60
2018-03-31T11:29:31.919Z,5.50
2018-03-31T11:32:00.490Z,5.50
2018-03-31T11:34:29.230Z,5.60
2018-03-31T11:36:57.867Z,5.70
2018-03-31T11:39:26.367Z,5.60
2018-03-31T11:41:55.215Z,5.80
2018-03-31T11:44:24.905Z,5.60
2018-03-31T11:46:53.399Z,5.60
2018-03-31T11:49:23.174Z,5.70
2018-03-31T11:51:52.400Z,5.60
2018-03-31T11:54:20.832Z,5.60
2018-03-31T11:56:49.579Z,5.50
2018-03-31T11:59:18.119Z,5.40
2018-03-31T12:01:46.654Z,5.40
2018-03-31T12:04:15.369Z,5.30
2018-03-31T12:06:44.091Z,5.30
2018-03-31T12:09:12.591Z,5.60
2018-03-31T12:11:41.099Z,5.80
2018-03-31T12:14:10.240Z,5.90
2018-03-31T12:16:38.706Z,6.00
2018-03-31T12:19:07.966Z,5.90
2018-03-31T12:21:37.820Z,6.00
2018-03-31T12:24:06.320Z,5.90
2018-03-31T12:26:35.827Z,6.10
2018-03-31T12:29:04.558Z,5.80
2018-03-31T12:31:33.064Z,5.80
2018-03-31T12:34:01.942Z,5.50
2018-03-31T12:36:30.688Z,5.70
2018-03-31T12:38:59.178Z,5.90
2018-03-31T12:41:28.108Z,5.80
2018-03-31T12:43:57.622Z,5.40
2018-03-31T12:46:26.856Z,5.40
2018-03-31T12:48:55.355Z,5.40
2018-03-31T12:51:25.922Z,5.60
2018-03-31T12:53:55.227Z,5.50
2018-03-31T12:56:24.558Z,5.50
2018-03-31T12:58:53.343Z,5.40
2018-03-31T13:01:22.059Z,5.50
2018-03-31T13:03:50.523Z,5.50
2018-03-31T13:06:20.195Z,5.50
2018-03-31T13:08:49.449Z,5.30
2018-03-31T13:11:17.953Z,5.30
2018-03-31T13:13:47.497Z,5.30
2018-03-31T13:16:16.097Z,5.30
2018-03-31T13:18:44.875Z,5.10
2018-03-31T13:21:13.912Z,5.10
2018-03-31T13:23:42.358Z,5.20
2018-03-31T13:26:10.869Z,5.10
2018-03-31T13:28:39.719Z,5.10
2018-03-31T13:31:08.211Z,4.90
2018-03-31T13:33:36.698Z,4.80
2018-03-31T13:36:06.915Z,4.70
2018-03-31T13:38:35.689Z,4.60
2018-03-31T13:41:04.472Z,4.50
2018-03-31T13:43:33.294Z,4.60
2018-03-31T13:46:01.847Z,4.50
2018-03-31T13:48:30.820Z,4.50
2018-03-31T13:51:00.647Z,4.50
2018-03-31T13:53:29.131Z,4.50
2018-03-31T13:55:57.932Z,4.50
2018-03-31T13:58:26.981Z,4.50
2018-03-31T14:00:56.290Z,4.70
2018-03-31T14:03:24.934Z,4.70
2018-03-31T14:05:54.447Z,4.70
2018-03-31T14:08:22.928Z,4.70
2018-03-31T14:10:52.235Z,4.30
2018-03-31T14:13:21.096Z,4.30
2018-03-31T14:15:49.662Z,4.00
2018-03-31T14:18:18.711Z,4.00
2018-03-31T14:20:47.629Z,3.80
2018-03-31T14:23:16.998Z,3.90
2018-03-31T14:25:46.750Z,3.60
2018-03-31T14:28:16.632Z,3.50
2018-03-31T14:30:45.873Z,3.40
2018-03-31T14:33:14.575Z,3.40
2018-03-31T14:35:44.372Z,3.60
2018-03-31T14:38:13.343Z,3.60
2018-03-31T14:40:42.471Z,3.60
2018-03-31T14:43:11.404Z,3.60
2018-03-31T14:45:40.647Z,3.50
2018-03-31T14:48:09.220Z,3.50
2018-03-31T14:50:38.786Z,3.50
2018-03-31T14:53:08.028Z,3.60
2018-03-31T14:55:36.731Z,3.70
2018-03-31T14:58:05.514Z,3.70
2018-03-31T15:00:34.051Z,3.70
2018-03-31T15:03:04.532Z,3.60
2018-03-31T15:05:34.336Z,3.70
2018-03-31T15:08:03.726Z,3.30
2018-03-31T15:10:32.244Z,3.30
2018-03-31T15:13:01.051Z,3.30
2018-03-31T15:15:30.307Z,3.20
2018-03-31T15:17:58.802Z,3.20
2018-03-31T15:20:28.546Z,3.30
2018-03-31T15:22:58.050Z,3.50
2018-03-31T15:25:26.545Z,3.20
2018-03-31T15:27:55.262Z,3.20
2018-03-31T15:30:24.066Z,3.10
2018-03-31T15:32:54.066Z,3.10
2018-03-31T15:35:22.578Z,3.10
2018-03-31T15:37:53.608Z,3.10
2018-03-31T15:40:22.288Z,3.00
2018-03-31T15:42:50.778Z,3.00
2018-03-31T15:45:19.291Z,3.00
2018-03-31T15:47:48.055Z,2.80
2018-03-31T15:50:16.506Z,2.60
2018-03-31T15:52:45.096Z,2.40
2018-03-31T15:55:13.984Z,2.40
2018-03-31T15:57:42.544Z,2.30
2018-03-31T16:00:11.171Z,2.20
2018-03-31T16:02:40.050Z,2.20
2018-03-31T16:05:08.551Z,2.10
2018-03-31T16:07:37.194Z,2.10
2018-03-31T16:10:05.965Z,2.00
2018-03-31T16:12:34.495Z,1.90
2018-03-31T16:15:03.096Z,1.80
2018-03-31T16:17:32.730Z,1.70
2018-03-31T16:20:01.383Z,1.70
2018-03-31T16:22:30.684Z,1.70
2018-03-31T16:25:00.188Z,1.60
2018-03-31T16:27:29.786Z,1.70
2018-03-31T16:29:59.120Z,1.70
2018-03-31T16:32:27.918Z,1.60
2018-03-31T16:34:56.541Z,1.70
2018-03-31T16:37:25.050Z,1.70
2018-03-31T16:39:53.965Z,1.80
2018-03-31T16:42:22.439Z,1.80
2018-03-31T16:44:51.685Z,1.60
2018-03-31T16:47:20.405Z,1.70
2018-03-31T16:49:49.680Z,1.80
2018-03-31T16:52:20.113Z,1.80
2018-03-31T16:54:48.988Z,1.80
2018-03-31T16:57:17.514Z,1.80
2018-03-31T16:59:46.095Z,1.80
2018-03-31T17:02:15.709Z,1.80
2018-03-31T17:04:44.224Z,1.80
2018-03-31T17:07:12.785Z,1.80
2018-03-31T17:09:41.565Z,1.80
2018-03-31T17:12:10.055Z,1.70
2018-03-31T17:14:38.759Z,1.70
2018-03-31T17:17:07.690Z,1.70
2018-03-31T17:19:36.956Z,1.60
2018-03-31T17:22:05.426Z,1.60
2018-03-31T17:24:34.217Z,1.60
2018-03-31T17:27:02.975Z,1.60
2018-03-31T17:29:32.213Z,1.70
2018-03-31T17:32:00.918Z,1.70
2018-03-31T17:34:29.495Z,1.60
2018-03-31T17:36:58.443Z,1.60
2018-03-31T17:39:27.309Z,1.60
2018-03-31T17:41:56.554Z,1.60
2018-03-31T17:44:25.266Z,1.60
2018-03-31T17:46:53.799Z,1.60
2018-03-31T17:49:23.314Z,1.50
2018-03-31T17:51:52.056Z,1.50
2018-03-31T17:54:20.550Z,1.50
2018-03-31T17:56:50.067Z,1.40
2018-03-31T17:59:18.546Z,1.40
2018-03-31T18:01:47.112Z,1.40
2018-03-31T18:04:16.194Z,1.40
2018-03-31T18:06:44.895Z,1.50
2018-03-31T18:09:13.411Z,1.50
2018-03-31T18:11:43.230Z,1.40
2018-03-31T18:14:11.724Z,1.40
2018-03-31T18:16:40.342Z,1.40
2018-03-31T18:19:10.019Z,1.50
2018-03-31T18:21:38.489Z,1.40
2018-03-31T18:24:07.031Z,1.40
2018-03-31T18:26:36.094Z,1.40
2018-03-31T18:29:04.575Z,1.40
2018-03-31T18:31:33.481Z,1.40
2018-03-31T18:34:03.159Z,1.40
2018-03-31T18:36:32.100Z,1.40
2018-03-31T18:39:00.703Z,1.40
2018-03-31T18:41:29.532Z,1.30
2018-03-31T18:43:58.222Z,1.40
2018-03-31T18:46:27.564Z,1.40
2018-03-31T18:48:56.462Z,1.40
2018-03-31T18:51:25.033Z,1.30
2018-03-31T18:53:53.632Z,1.30
2018-03-31T18:56:22.398Z,1.40
2018-03-31T18:58:50.854Z,1.40
2018-03-31T19:01:20.241Z,1.50
2018-03-31T19:03:49.793Z,1.40
2018-03-31T19:06:18.599Z,1.40
2018-03-31T19:08:50.004Z,1.50
2018-03-31T19:11:19.526Z,1.40
2018-03-31T19:13:48.036Z,1.40
2018-03-31T19:16:16.774Z,1.40
2018-03-31T19:18:45.570Z,1.40
2018-03-31T19:21:14.846Z,1.40
2018-03-31T19:23:44.372Z,1.40
2018-03-31T19:26:13.194Z,1.40
2018-03-31T19:28:42.074Z,1.50
2018-03-31T19:31:10.535Z,1.50
2018-03-31T19:33:39.045Z,1.50
2018-03-31T19:36:12.290Z,1.50
2018-03-31T19:38:40.830Z,1.50
2018-03-31T19:41:09.306Z,1.60
2018-03-31T19:43:38.639Z,1.50
2018-03-31T19:46:07.198Z,1.50
2018-03-31T19:48:35.998Z,1.50
2018-03-31T19:51:04.457Z,1.50
2018-03-31T19:53:32.971Z,1.50
2018-03-31T19:56:02.414Z,1.60
2018-03-31T19:58:30.910Z,1.60
2018-03-31T20:01:00.621Z,1.60
2018-03-31T20:03:29.528Z,1.70
2018-03-31T20:05:58.035Z,1.70
2018-03-31T20:08:27.934Z,1.70
2018-03-31T20:10:57.670Z,1.70
2018-03-31T20:13:27.306Z,1.70
2018-03-31T20:15:56.916Z,1.70
2018-03-31T20:18:25.703Z,1.70
2018-03-31T20:20:54.264Z,1.60
2018-03-31T20:23:23.511Z,1.70
2018-03-31T20:25:52.293Z,1.60
2018-03-31T20:28:22.950Z,1.70
2018-03-31T20:30:51.553Z,1.70
2018-03-31T20:33:21.139Z,1.70
2018-03-31T20:35:49.684Z,1.70
2018-03-31T20:38:18.977Z,1.80
2018-03-31T20:40:48.616Z,1.70
2018-03-31T20:43:17.921Z,1.80
2018-03-31T20:45:46.456Z,1.70
2018-03-31T20:48:15.259Z,1.80
2018-03-31T20:50:43.774Z,1.70
2018-03-31T20:53:12.260Z,1.80
2018-03-31T20:55:41.013Z,1.80
2018-03-31T20:58:10.101Z,1.70
2018-03-31T21:00:38.657Z,1.70
2018-03-31T21:03:08.174Z,1.80
2018-03-31T21:05:37.517Z,1.70
2018-03-31T21:08:06.043Z,1.70
2018-03-31T21:10:35.964Z,1.80
2018-03-31T21:13:04.475Z,1.70
2018-03-31T21:15:32.972Z,1.70
2018-03-31T21:18:01.836Z,1.80
2018-03-31T21:20:31.169Z,1.80
2018-03-31T21:22:59.719Z,1.80
2018-03-31T21:25:28.450Z,1.80
2018-03-31T21:27:56.885Z,1.80
2018-03-31T21:30:25.364Z,1.80
2018-03-31T21:32:54.447Z,1.80
2018-03-31T21:35:22.895Z,1.80
2018-03-31T21:37:51.368Z,1.70
2018-03-31T21:40:20.091Z,1.70
2018-03-31T21:42:49.314Z,1.80
2018-03-31T21:45:17.832Z,1.70
2018-03-31T21:47:46.575Z,1.80
2018-03-31T21:50:15.438Z,1.60
2018-03-31T21:52:45.151Z,1.70
2018-03-31T21:55:14.519Z,1.80
2018-03-31T21:57:43.330Z,1.80
2018-03-31T22:00:11.955Z,1.90
2018-03-31T22:02:40.736Z,1.80
2018-03-31T22:05:10.235Z,1.70
2018-03-31T22:07:38.742Z,1.70
2018-03-31T22:10:07.472Z,1.70
2018-03-31T22:12:36.942Z,1.80
2018-03-31T22:15:10.526Z,1.80
2018-03-31T22:17:39.189Z,1.80
2018-03-31T22:20:07.978Z,1.80
2018-03-31T22:22:36.480Z,1.80
2018-03-31T22:25:04.943Z,1.80
2018-03-31T22:27:33.691Z,1.80
2018-03-31T22:30:02.119Z,1.90
2018-03-31T22:32:30.584Z,1.90
2018-03-31T22:34:59.430Z,1.90
2018-03-31T22:37:28.118Z,1.80
2018-03-31T22:39:57.386Z,1.70
2018-03-31T22:42:26.920Z,1.80
2018-03-31T22:44:56.169Z,1.80
2018-03-31T22:47:24.625Z,1.80
2018-03-31T22:49:54.194Z,1.90
2018-03-31T22:52:22.798Z,1.80
2018-03-31T22:54:52.063Z,2.00
2018-03-31T22:57:21.074Z,1.90
2018-03-31T22:59:49.730Z,2.00
2018-03-31T23:02:19.267Z,1.70
2018-03-31T23:04:48.482Z,1.80
2018-03-31T23:07:18.097Z,1.80
2018-03-31T23:09:46.816Z,1.80
2018-03-31T23:12:15.906Z,1.80
2018-03-31T23:14:44.710Z,1.90
2018-03-31T23:17:14.206Z,1.80
2018-03-31T23:19:44.430Z,1.80
2018-03-31T23:22:13.975Z,1.60
2018-03-31T23:24:43.267Z,1.60
2018-03-31T23:27:12.637Z,1.60
2018-03-31T23:29:41.407Z,1.60
2018-03-31T23:32:10.208Z,1.70
2018-03-31T23:34:38.948Z,1.70
2018-03-31T23:37:08.184Z,1.70
2018-03-31T23:39:36.657Z,1.80
2018-03-31T23:42:05.241Z,1.70
2018-03-31T23:44:34.003Z,1.60
2018-03-31T23:47:02.817Z,1.60
2018-03-31T23:49:31.396Z,1.60
2018-03-31T23:52:00.192Z,1.70
2018-03-31T23:54:29.520Z,1.60
2018-03-31T23:56:58.115Z,1.60
2018-03-31T23:59:26.648Z,1.70
